createdAt,value
2023-01-18T00:00:28.789Z,55.45
2023-01-18T00:02:56.174Z,55.61
2023-01-18T00:05:23.715Z,56.04
2023-01-18T00:07:50.887Z,55.75
2023-01-18T00:10:18.026Z,55.57
2023-01-18T00:12:46.534Z,55.43
2023-01-18T00:15:13.586Z,56.35
2023-01-18T00:17:52.859Z,55.18
2023-01-18T00:20:23.019Z,55.55
2023-01-18T00:22:51.484Z,55.95
2023-01-18T00:25:20.588Z,56.13
2023-01-18T00:27:51.737Z,56.45
2023-01-18T00:30:21.275Z,55.52
2023-01-18T00:32:49.302Z,55.81
2023-01-18T00:35:17.376Z,56.18
2023-01-18T00:37:45.181Z,55.77
2023-01-18T00:40:12.419Z,55.72
2023-01-18T00:42:58.435Z,55.88
2023-01-18T00:45:26.932Z,55.90
2023-01-18T00:47:53.877Z,55.78
2023-01-18T00:50:22.314Z,56.16
2023-01-18T00:52:50.072Z,56.31
2023-01-18T00:55:17.887Z,55.97
2023-01-18T00:57:47.020Z,56.55
2023-01-18T01:00:16.702Z,56.17
2023-01-18T01:02:45.427Z,56.26
2023-01-18T01:05:37.568Z,56.28
2023-01-18T01:08:06.082Z,55.64
2023-01-18T01:10:33.906Z,56.56
2023-01-18T01:13:19.746Z,55.73
2023-01-18T01:16:05.654Z,56.13
2023-01-18T01:18:52.209Z,56.16
2023-01-18T01:21:37.772Z,56.96
2023-01-18T01:24:23.628Z,55.94
2023-01-18T01:26:50.500Z,56.02
2023-01-18T01:29:17.574Z,56.01
2023-01-18T01:31:44.487Z,56.52
2023-01-18T01:34:13.147Z,55.85
2023-01-18T01:36:40.108Z,56.78
2023-01-18T01:39:09.057Z,56.38
2023-01-18T01:41:36.422Z,55.99
2023-01-18T01:44:43.438Z,56.22
2023-01-18T01:47:19.343Z,55.85
2023-01-18T01:50:01.166Z,55.96
2023-01-18T01:52:35.932Z,56.20
2023-01-18T01:55:11.610Z,56.92
2023-01-18T01:57:45.085Z,56.67
2023-01-18T02:00:16.416Z,56.85
2023-01-18T02:02:46.735Z,56.84
2023-01-18T02:05:17.721Z,55.55
2023-01-18T02:07:45.458Z,55.67
2023-01-18T02:10:12.956Z,55.54
2023-01-18T02:12:44.763Z,55.60
2023-01-18T02:15:11.917Z,56.54
2023-01-18T02:18:05.306Z,55.85
2023-01-18T02:21:14.419Z,56.39
2023-01-18T02:24:44.464Z,55.85
2023-01-18T02:27:22.305Z,56.04
2023-01-18T02:30:15.147Z,56.22
2023-01-18T02:33:05.477Z,55.61
2023-01-18T02:35:47.171Z,56.80
2023-01-18T02:38:20.967Z,56.54
2023-01-18T02:41:06.826Z,56.38
2023-01-18T02:43:54.736Z,56.13
2023-01-18T02:46:31.146Z,56.49
2023-01-18T02:49:00.616Z,56.65
2023-01-18T02:51:27.560Z,56.38
2023-01-18T02:53:54.450Z,56.73
2023-01-18T02:56:26.016Z,56.36
2023-01-18T02:58:59.477Z,56.08
2023-01-18T03:01:34.806Z,56.26
2023-01-18T03:04:12.278Z,56.75
2023-01-18T03:06:44.894Z,57.40
2023-01-18T03:09:18.392Z,56.51
2023-01-18T03:11:57.631Z,56.27
2023-01-18T03:14:39.242Z,56.61
2023-01-18T03:17:18.274Z,56.36
2023-01-18T03:20:07.215Z,56.33
2023-01-18T03:22:58.130Z,56.72
2023-01-18T03:25:30.555Z,56.93
2023-01-18T03:28:22.689Z,57.07
2023-01-18T03:31:11.156Z,56.31
2023-01-18T03:33:47.957Z,56.79
2023-01-18T03:36:25.381Z,57.23
2023-01-18T03:39:00.456Z,57.22
2023-01-18T03:41:37.010Z,56.23
2023-01-18T03:44:11.985Z,56.49
2023-01-18T03:46:40.990Z,56.70
2023-01-18T03:49:10.075Z,55.80
2023-01-18T03:52:01.867Z,54.90
2023-01-18T03:54:37.051Z,55.42
2023-01-18T03:57:32.335Z,55.58
2023-01-18T04:00:01.485Z,55.22
2023-01-18T04:02:28.949Z,54.74
2023-01-18T04:04:58.326Z,54.29
2023-01-18T04:07:26.046Z,54.21
2023-01-18T04:09:53.503Z,54.38
2023-01-18T04:12:20.425Z,54.35
2023-01-18T04:14:47.345Z,54.71
2023-01-18T04:17:14.352Z,54.87
2023-01-18T04:19:41.407Z,54.65
2023-01-18T04:22:10.224Z,54.63
2023-01-18T04:24:37.502Z,54.60
2023-01-18T04:27:04.511Z,54.83
2023-01-18T04:29:31.659Z,55.20
2023-01-18T04:31:58.582Z,54.65
2023-01-18T04:34:25.525Z,55.24
2023-01-18T04:36:53.557Z,55.12
2023-01-18T04:39:22.097Z,55.72
2023-01-18T04:41:49.228Z,55.95
2023-01-18T04:44:16.805Z,55.98
2023-01-18T04:46:43.975Z,56.38
2023-01-18T04:49:15.336Z,56.12
2023-01-18T04:51:43.587Z,56.40
2023-01-18T04:54:12.184Z,56.13
2023-01-18T04:56:40.500Z,56.40
2023-01-18T04:59:07.593Z,56.64
2023-01-18T05:01:35.650Z,55.49
2023-01-18T05:04:03.403Z,56.36
2023-01-18T05:06:30.364Z,56.36
2023-01-18T05:08:57.774Z,56.60
2023-01-18T05:11:24.773Z,55.48
2023-01-18T05:13:52.968Z,56.48
2023-01-18T05:16:23.319Z,55.77
2023-01-18T05:18:50.370Z,56.72
2023-01-18T05:21:17.351Z,56.31
2023-01-18T05:23:44.783Z,56.20
2023-01-18T05:26:17.166Z,56.01
2023-01-18T05:28:45.305Z,55.60
2023-01-18T05:31:15.229Z,55.73
2023-01-18T05:33:42.428Z,55.03
2023-01-18T05:36:10.017Z,54.87
2023-01-18T05:38:36.999Z,55.34
2023-01-18T05:41:04.157Z,55.11
2023-01-18T05:43:31.099Z,56.15
2023-01-18T05:45:59.199Z,54.86
2023-01-18T05:48:27.576Z,55.44
2023-01-18T05:50:54.555Z,55.74
2023-01-18T05:53:23.275Z,54.99
2023-01-18T05:55:58.741Z,54.93
2023-01-18T05:58:27.290Z,54.12
2023-01-18T06:00:55.471Z,54.82
2023-01-18T06:03:25.058Z,54.51
2023-01-18T06:05:53.375Z,54.19
2023-01-18T06:08:20.998Z,53.74
2023-01-18T06:10:53.492Z,52.71
2023-01-18T06:13:21.403Z,53.42
2023-01-18T06:15:49.749Z,54.23
2023-01-18T06:18:16.749Z,54.17
2023-01-18T06:20:43.875Z,54.02
2023-01-18T06:23:12.340Z,53.00
2023-01-18T06:25:39.259Z,53.74
2023-01-18T06:28:06.330Z,54.57
2023-01-18T06:30:34.318Z,54.59
2023-01-18T06:33:06.516Z,54.21
2023-01-18T06:35:33.833Z,54.46
2023-01-18T06:38:00.884Z,54.21
2023-01-18T06:40:29.300Z,55.24
2023-01-18T06:42:56.951Z,55.45
2023-01-18T06:45:25.785Z,55.41
2023-01-18T06:47:53.300Z,54.52
2023-01-18T06:50:21.213Z,55.35
2023-01-18T06:52:48.481Z,55.98
2023-01-18T06:55:15.955Z,55.42
2023-01-18T06:57:54.869Z,56.31
2023-01-18T07:00:23.534Z,55.93
2023-01-18T07:02:52.836Z,55.43
2023-01-18T07:05:21.009Z,55.37
2023-01-18T07:07:47.986Z,56.20
2023-01-18T07:10:29.968Z,55.62
2023-01-18T07:13:02.921Z,56.42
2023-01-18T07:15:35.076Z,56.56
2023-01-18T07:18:01.965Z,56.39
2023-01-18T07:20:29.399Z,56.19
2023-01-18T07:22:56.702Z,56.06
2023-01-18T07:25:23.913Z,56.30
2023-01-18T07:27:51.273Z,56.65
2023-01-18T07:30:20.231Z,56.04
2023-01-18T07:32:49.972Z,56.04
2023-01-18T07:35:20.159Z,56.23
2023-01-18T07:37:49.498Z,55.94
2023-01-18T07:40:18.781Z,56.14
2023-01-18T07:42:47.037Z,56.29
2023-01-18T07:45:14.753Z,56.87
2023-01-18T07:47:43.415Z,56.60
2023-01-18T07:50:11.995Z,56.15
2023-01-18T07:52:39.163Z,56.57
2023-01-18T07:55:07.351Z,56.48
2023-01-18T07:57:34.598Z,56.07
2023-01-18T08:00:02.092Z,56.37
2023-01-18T08:02:29.607Z,56.61
2023-01-18T08:05:02.118Z,55.95
2023-01-18T08:07:35.160Z,56.36
2023-01-18T08:10:02.532Z,56.54
2023-01-18T08:12:30.670Z,55.57
2023-01-18T08:14:58.787Z,56.00
2023-01-18T08:17:27.840Z,55.76
2023-01-18T08:19:55.054Z,56.24
2023-01-18T08:22:23.534Z,55.94
2023-01-18T08:24:50.949Z,55.67
2023-01-18T08:27:18.088Z,56.22
2023-01-18T08:29:46.823Z,55.51
2023-01-18T08:32:15.387Z,56.10
2023-01-18T08:34:43.814Z,55.13
2023-01-18T08:37:11.754Z,56.23
2023-01-18T08:39:40.119Z,55.93
2023-01-18T08:42:15.746Z,55.67
2023-01-18T08:45:09.621Z,55.88
2023-01-18T08:47:56.978Z,55.10
2023-01-18T08:50:46.322Z,54.48
2023-01-18T08:53:26.367Z,53.90
2023-01-18T08:56:05.736Z,54.63
2023-01-18T08:59:19.974Z,54.11
2023-01-18T09:02:11.370Z,54.65
2023-01-18T09:04:38.412Z,54.67
2023-01-18T09:07:09.545Z,54.73
2023-01-18T09:09:44.824Z,54.08
2023-01-18T09:12:29.251Z,54.26
2023-01-18T09:15:14.128Z,54.02
2023-01-18T09:17:42.748Z,54.73
2023-01-18T09:20:31.021Z,54.03
